sensor_id;sensor_type;location;lat;lon;timestamp;P1;durP1;ratioP1;P2;durP2;ratioP2
55134;SDS011;41031;44.750;11.308;2023-04-25T00:02:19;2.67;;;1.90;;
55134;SDS011;41031;44.750;11.308;2023-04-25T00:04:46;1.50;;;1.40;;
55134;SDS011;41031;44.750;11.308;2023-04-25T00:07:15;3.90;;;1.83;;
55134;SDS011;41031;44.750;11.308;2023-04-25T00:09:43;1.53;;;1.43;;
55134;SDS011;41031;44.750;11.308;2023-04-25T00:12:11;2.10;;;1.47;;
55134;SDS011;41031;44.750;11.308;2023-04-25T00:14:38;2.63;;;1.47;;
55134;SDS011;41031;44.750;11.308;2023-04-25T00:17:05;2.40;;;1.63;;
55134;SDS011;41031;44.750;11.308;2023-04-25T00:19:32;2.00;;;1.60;;
55134;SDS011;41031;44.750;11.308;2023-04-25T00:22:01;3.20;;;1.60;;
55134;SDS011;41031;44.750;11.308;2023-04-25T00:24:28;1.63;;;1.20;;
55134;SDS011;41031;44.750;11.308;2023-04-25T00:26:55;1.70;;;1.53;;
55134;SDS011;41031;44.750;11.308;2023-04-25T00:29:22;2.70;;;1.50;;
55134;SDS011;41031;44.750;11.308;2023-04-25T00:31:49;1.90;;;1.23;;
55134;SDS011;41031;44.750;11.308;2023-04-25T00:34:16;3.20;;;1.47;;
55134;SDS011;41031;44.750;11.308;2023-04-25T00:36:43;1.87;;;1.30;;
55134;SDS011;41031;44.750;11.308;2023-04-25T00:39:10;3.17;;;1.63;;
55134;SDS011;41031;44.750;11.308;2023-04-25T00:41:38;3.77;;;1.50;;
55134;SDS011;41031;44.750;11.308;2023-04-25T00:44:06;2.03;;;1.20;;
55134;SDS011;41031;44.750;11.308;2023-04-25T00:46:38;2.97;;;1.80;;
55134;SDS011;41031;44.750;11.308;2023-04-25T00:49:06;1.97;;;1.40;;
55134;SDS011;41031;44.750;11.308;2023-04-25T00:51:33;2.47;;;1.23;;
55134;SDS011;41031;44.750;11.308;2023-04-25T00:54:01;3.00;;;1.50;;
55134;SDS011;41031;44.750;11.308;2023-04-25T00:56:28;1.53;;;1.43;;
55134;SDS011;41031;44.750;11.308;2023-04-25T00:58:56;3.07;;;1.60;;
55134;SDS011;41031;44.750;11.308;2023-04-25T01:01:23;1.33;;;1.07;;
55134;SDS011;41031;44.750;11.308;2023-04-25T01:03:51;1.10;;;1.00;;
55134;SDS011;41031;44.750;11.308;2023-04-25T01:06:21;5.07;;;1.43;;
55134;SDS011;41031;44.750;11.308;2023-04-25T01:08:48;3.17;;;1.50;;
55134;SDS011;41031;44.750;11.308;2023-04-25T01:11:15;3.20;;;1.90;;
55134;SDS011;41031;44.750;11.308;2023-04-25T01:13:42;2.53;;;1.30;;
55134;SDS011;41031;44.750;11.308;2023-04-25T01:16:09;3.07;;;1.53;;
55134;SDS011;41031;44.750;11.308;2023-04-25T01:18:38;1.57;;;1.33;;
55134;SDS011;41031;44.750;11.308;2023-04-25T01:21:07;4.47;;;1.20;;
55134;SDS011;41031;44.750;11.308;2023-04-25T01:23:40;1.83;;;1.23;;
55134;SDS011;41031;44.750;11.308;2023-04-25T01:26:09;1.90;;;1.67;;
55134;SDS011;41031;44.750;11.308;2023-04-25T01:28:37;2.23;;;1.47;;
55134;SDS011;41031;44.750;11.308;2023-04-25T01:31:09;1.60;;;1.50;;
55134;SDS011;41031;44.750;11.308;2023-04-25T01:33:37;3.03;;;1.57;;
55134;SDS011;41031;44.750;11.308;2023-04-25T01:36:04;4.90;;;1.60;;
55134;SDS011;41031;44.750;11.308;2023-04-25T01:38:34;4.40;;;1.50;;
55134;SDS011;41031;44.750;11.308;2023-04-25T01:41:01;10.13;;;1.47;;
55134;SDS011;41031;44.750;11.308;2023-04-25T01:43:29;4.87;;;2.10;;
55134;SDS011;41031;44.750;11.308;2023-04-25T01:45:56;4.90;;;2.20;;
55134;SDS011;41031;44.750;11.308;2023-04-25T01:48:23;9.00;;;2.10;;
55134;SDS011;41031;44.750;11.308;2023-04-25T01:50:50;5.50;;;1.30;;
55134;SDS011;41031;44.750;11.308;2023-04-25T01:53:17;4.70;;;2.03;;
55134;SDS011;41031;44.750;11.308;2023-04-25T01:55:45;5.60;;;2.10;;
55134;SDS011;41031;44.750;11.308;2023-04-25T01:58:15;4.17;;;2.10;;
55134;SDS011;41031;44.750;11.308;2023-04-25T02:01:08;7.30;;;1.83;;
55134;SDS011;41031;44.750;11.308;2023-04-25T02:03:42;5.50;;;1.90;;
55134;SDS011;41031;44.750;11.308;2023-04-25T02:06:18;5.07;;;2.10;;
55134;SDS011;41031;44.750;11.308;2023-04-25T02:08:47;5.43;;;1.87;;
55134;SDS011;41031;44.750;11.308;2023-04-25T02:11:15;5.47;;;2.17;;
55134;SDS011;41031;44.750;11.308;2023-04-25T02:14:11;2.73;;;1.90;;
55134;SDS011;41031;44.750;11.308;2023-04-25T02:16:54;2.30;;;1.70;;
55134;SDS011;41031;44.750;11.308;2023-04-25T02:19:21;4.07;;;1.77;;
55134;SDS011;41031;44.750;11.308;2023-04-25T02:21:49;3.70;;;1.67;;
55134;SDS011;41031;44.750;11.308;2023-04-25T02:24:16;3.80;;;1.83;;
55134;SDS011;41031;44.750;11.308;2023-04-25T02:26:42;3.43;;;1.27;;
55134;SDS011;41031;44.750;11.308;2023-04-25T02:29:12;3.63;;;1.33;;
55134;SDS011;41031;44.750;11.308;2023-04-25T02:31:41;3.67;;;1.27;;
55134;SDS011;41031;44.750;11.308;2023-04-25T02:34:08;3.27;;;1.77;;
55134;SDS011;41031;44.750;11.308;2023-04-25T02:36:37;2.13;;;1.10;;
55134;SDS011;41031;44.750;11.308;2023-04-25T02:39:04;4.30;;;1.50;;
55134;SDS011;41031;44.750;11.308;2023-04-25T02:41:31;3.37;;;1.50;;
55134;SDS011;41031;44.750;11.308;2023-04-25T02:43:58;4.73;;;1.70;;
55134;SDS011;41031;44.750;11.308;2023-04-25T02:46:25;4.67;;;1.53;;
55134;SDS011;41031;44.750;11.308;2023-04-25T02:49:05;2.17;;;1.23;;
55134;SDS011;41031;44.750;11.308;2023-04-25T02:51:34;1.40;;;1.00;;
55134;SDS011;41031;44.750;11.308;2023-04-25T02:54:01;1.37;;;1.10;;
55134;SDS011;41031;44.750;11.308;2023-04-25T02:56:29;1.67;;;1.03;;
55134;SDS011;41031;44.750;11.308;2023-04-25T02:58:56;2.07;;;1.20;;
55134;SDS011;41031;44.750;11.308;2023-04-25T03:01:24;2.90;;;1.03;;
55134;SDS011;41031;44.750;11.308;2023-04-25T03:03:51;3.60;;;1.27;;
55134;SDS011;41031;44.750;11.308;2023-04-25T03:06:18;1.57;;;1.10;;
55134;SDS011;41031;44.750;11.308;2023-04-25T03:08:46;1.57;;;1.07;;
55134;SDS011;41031;44.750;11.308;2023-04-25T03:11:13;1.60;;;1.17;;
55134;SDS011;41031;44.750;11.308;2023-04-25T03:13:41;4.20;;;1.27;;
55134;SDS011;41031;44.750;11.308;2023-04-25T03:16:09;0.73;;;0.73;;
55134;SDS011;41031;44.750;11.308;2023-04-25T03:18:36;1.37;;;1.00;;
55134;SDS011;41031;44.750;11.308;2023-04-25T03:21:03;1.20;;;1.03;;
55134;SDS011;41031;44.750;11.308;2023-04-25T03:23:30;0.93;;;0.93;;
55134;SDS011;41031;44.750;11.308;2023-04-25T03:25:57;1.30;;;1.20;;
55134;SDS011;41031;44.750;11.308;2023-04-25T03:28:24;0.90;;;0.90;;
55134;SDS011;41031;44.750;11.308;2023-04-25T03:30:52;2.07;;;1.00;;
55134;SDS011;41031;44.750;11.308;2023-04-25T03:33:20;2.50;;;0.80;;
55134;SDS011;41031;44.750;11.308;2023-04-25T03:35:47;4.30;;;2.23;;
55134;SDS011;41031;44.750;11.308;2023-04-25T03:38:16;1.67;;;1.10;;
55134;SDS011;41031;44.750;11.308;2023-04-25T03:40:44;1.80;;;1.27;;
55134;SDS011;41031;44.750;11.308;2023-04-25T03:43:22;4.10;;;0.90;;
55134;SDS011;41031;44.750;11.308;2023-04-25T03:45:55;1.90;;;1.00;;
55134;SDS011;41031;44.750;11.308;2023-04-25T03:48:24;2.33;;;1.17;;
55134;SDS011;41031;44.750;11.308;2023-04-25T03:50:53;2.70;;;1.40;;
55134;SDS011;41031;44.750;11.308;2023-04-25T03:53:21;1.20;;;1.10;;
55134;SDS011;41031;44.750;11.308;2023-04-25T03:56:08;1.07;;;1.03;;
55134;SDS011;41031;44.750;11.308;2023-04-25T03:58:37;2.53;;;1.03;;
55134;SDS011;41031;44.750;11.308;2023-04-25T04:01:05;2.00;;;1.13;;
55134;SDS011;41031;44.750;11.308;2023-04-25T04:03:36;2.63;;;1.10;;
55134;SDS011;41031;44.750;11.308;2023-04-25T04:06:05;1.73;;;1.30;;
55134;SDS011;41031;44.750;11.308;2023-04-25T04:08:39;1.90;;;1.23;;
55134;SDS011;41031;44.750;11.308;2023-04-25T04:11:08;3.30;;;1.63;;
55134;SDS011;41031;44.750;11.308;2023-04-25T04:13:35;1.20;;;1.10;;
55134;SDS011;41031;44.750;11.308;2023-04-25T04:16:03;3.87;;;1.13;;
55134;SDS011;41031;44.750;11.308;2023-04-25T04:18:30;2.43;;;1.10;;
55134;SDS011;41031;44.750;11.308;2023-04-25T04:21:00;1.37;;;1.20;;
55134;SDS011;41031;44.750;11.308;2023-04-25T04:23:30;1.20;;;1.10;;
55134;SDS011;41031;44.750;11.308;2023-04-25T04:25:58;2.53;;;1.30;;
55134;SDS011;41031;44.750;11.308;2023-04-25T04:28:26;2.03;;;1.30;;
55134;SDS011;41031;44.750;11.308;2023-04-25T04:31:19;2.00;;;1.50;;
55134;SDS011;41031;44.750;11.308;2023-04-25T04:33:48;1.30;;;1.20;;
55134;SDS011;41031;44.750;11.308;2023-04-25T04:36:16;2.90;;;1.30;;
55134;SDS011;41031;44.750;11.308;2023-04-25T04:38:46;2.67;;;1.43;;
55134;SDS011;41031;44.750;11.308;2023-04-25T04:41:22;4.80;;;1.43;;
55134;SDS011;41031;44.750;11.308;2023-04-25T04:44:01;2.67;;;1.60;;
55134;SDS011;41031;44.750;11.308;2023-04-25T04:46:49;1.20;;;1.10;;
55134;SDS011;41031;44.750;11.308;2023-04-25T04:49:46;4.53;;;1.57;;
55134;SDS011;41031;44.750;11.308;2023-04-25T04:52:42;2.63;;;1.40;;
55134;SDS011;41031;44.750;11.308;2023-04-25T04:55:28;2.43;;;1.37;;
55134;SDS011;41031;44.750;11.308;2023-04-25T04:58:06;2.30;;;1.57;;
55134;SDS011;41031;44.750;11.308;2023-04-25T05:00:42;3.13;;;1.70;;
55134;SDS011;41031;44.750;11.308;2023-04-25T05:03:24;3.50;;;1.50;;
55134;SDS011;41031;44.750;11.308;2023-04-25T05:06:06;2.17;;;1.33;;
55134;SDS011;41031;44.750;11.308;2023-04-25T05:08:54;3.13;;;1.93;;
55134;SDS011;41031;44.750;11.308;2023-04-25T05:11:35;1.53;;;1.43;;
55134;SDS011;41031;44.750;11.308;2023-04-25T05:14:11;2.57;;;1.50;;
55134;SDS011;41031;44.750;11.308;2023-04-25T05:16:38;2.30;;;1.50;;
55134;SDS011;41031;44.750;11.308;2023-04-25T05:19:35;5.13;;;1.70;;
55134;SDS011;41031;44.750;11.308;2023-04-25T05:22:25;4.40;;;1.73;;
55134;SDS011;41031;44.750;11.308;2023-04-25T05:25:18;5.27;;;2.30;;
55134;SDS011;41031;44.750;11.308;2023-04-25T05:28:08;2.13;;;2.00;;
55134;SDS011;41031;44.750;11.308;2023-04-25T05:30:55;5.13;;;2.37;;
55134;SDS011;41031;44.750;11.308;2023-04-25T05:33:37;2.70;;;1.90;;
55134;SDS011;41031;44.750;11.308;2023-04-25T05:36:04;3.87;;;2.03;;
55134;SDS011;41031;44.750;11.308;2023-04-25T05:38:32;3.90;;;2.13;;
55134;SDS011;41031;44.750;11.308;2023-04-25T05:41:12;5.27;;;2.03;;
55134;SDS011;41031;44.750;11.308;2023-04-25T05:43:43;2.40;;;1.80;;
55134;SDS011;41031;44.750;11.308;2023-04-25T05:46:32;5.57;;;2.47;;
55134;SDS011;41031;44.750;11.308;2023-04-25T05:49:10;3.63;;;2.30;;
55134;SDS011;41031;44.750;11.308;2023-04-25T05:51:56;3.13;;;2.13;;
55134;SDS011;41031;44.750;11.308;2023-04-25T05:54:46;3.27;;;2.20;;
55134;SDS011;41031;44.750;11.308;2023-04-25T05:57:20;5.23;;;2.37;;
55134;SDS011;41031;44.750;11.308;2023-04-25T05:59:48;2.70;;;2.50;;
55134;SDS011;41031;44.750;11.308;2023-04-25T06:02:16;3.33;;;2.47;;
55134;SDS011;41031;44.750;11.308;2023-04-25T06:04:44;3.17;;;2.83;;
55134;SDS011;41031;44.750;11.308;2023-04-25T06:07:11;3.63;;;2.60;;
55134;SDS011;41031;44.750;11.308;2023-04-25T06:09:39;3.30;;;2.70;;
55134;SDS011;41031;44.750;11.308;2023-04-25T06:12:08;3.93;;;3.17;;
55134;SDS011;41031;44.750;11.308;2023-04-25T06:14:35;3.07;;;2.57;;
55134;SDS011;41031;44.750;11.308;2023-04-25T06:17:03;3.20;;;2.60;;
55134;SDS011;41031;44.750;11.308;2023-04-25T06:19:37;8.67;;;3.03;;
55134;SDS011;41031;44.750;11.308;2023-04-25T06:22:04;6.10;;;3.13;;
55134;SDS011;41031;44.750;11.308;2023-04-25T06:24:37;4.17;;;2.60;;
55134;SDS011;41031;44.750;11.308;2023-04-25T06:27:05;5.07;;;2.43;;
55134;SDS011;41031;44.750;11.308;2023-04-25T06:29:32;3.17;;;2.80;;
55134;SDS011;41031;44.750;11.308;2023-04-25T06:31:59;4.10;;;2.83;;
55134;SDS011;41031;44.750;11.308;2023-04-25T06:34:26;4.40;;;3.17;;
55134;SDS011;41031;44.750;11.308;2023-04-25T06:36:53;3.20;;;2.90;;
55134;SDS011;41031;44.750;11.308;2023-04-25T06:39:20;8.43;;;2.97;;
55134;SDS011;41031;44.750;11.308;2023-04-25T06:41:49;3.77;;;3.17;;
55134;SDS011;41031;44.750;11.308;2023-04-25T06:44:36;5.30;;;3.30;;
55134;SDS011;41031;44.750;11.308;2023-04-25T06:47:06;5.70;;;3.43;;
55134;SDS011;41031;44.750;11.308;2023-04-25T06:49:34;6.80;;;3.70;;
55134;SDS011;41031;44.750;11.308;2023-04-25T06:52:01;6.60;;;3.97;;
55134;SDS011;41031;44.750;11.308;2023-04-25T06:54:29;4.73;;;3.87;;
55134;SDS011;41031;44.750;11.308;2023-04-25T06:57:05;7.57;;;4.60;;
55134;SDS011;41031;44.750;11.308;2023-04-25T06:59:33;10.53;;;5.10;;
55134;SDS011;41031;44.750;11.308;2023-04-25T07:02:01;8.70;;;4.80;;
55134;SDS011;41031;44.750;11.308;2023-04-25T07:04:29;8.00;;;5.53;;
55134;SDS011;41031;44.750;11.308;2023-04-25T07:06:57;7.20;;;5.57;;
55134;SDS011;41031;44.750;11.308;2023-04-25T07:09:35;7.77;;;5.37;;
55134;SDS011;41031;44.750;11.308;2023-04-25T07:12:03;6.50;;;5.57;;
55134;SDS011;41031;44.750;11.308;2023-04-25T07:14:32;11.40;;;5.63;;
55134;SDS011;41031;44.750;11.308;2023-04-25T07:17:00;6.97;;;4.97;;
55134;SDS011;41031;44.750;11.308;2023-04-25T07:19:29;8.97;;;5.03;;
55134;SDS011;41031;44.750;11.308;2023-04-25T07:21:59;7.77;;;4.80;;
55134;SDS011;41031;44.750;11.308;2023-04-25T07:24:27;7.10;;;5.67;;
55134;SDS011;41031;44.750;11.308;2023-04-25T07:26:55;7.80;;;4.77;;
55134;SDS011;41031;44.750;11.308;2023-04-25T07:29:31;6.97;;;4.33;;
55134;SDS011;41031;44.750;11.308;2023-04-25T07:31:59;6.13;;;4.80;;
55134;SDS011;41031;44.750;11.308;2023-04-25T07:34:26;6.20;;;4.53;;
55134;SDS011;41031;44.750;11.308;2023-04-25T07:36:53;6.67;;;3.83;;
55134;SDS011;41031;44.750;11.308;2023-04-25T07:39:22;2.20;;;2.00;;
55134;SDS011;41031;44.750;11.308;2023-04-25T07:41:50;4.20;;;1.60;;
55134;SDS011;41031;44.750;11.308;2023-04-25T07:44:24;1.47;;;0.60;;
55134;SDS011;41031;44.750;11.308;2023-04-25T07:46:52;0.73;;;0.70;;
55134;SDS011;41031;44.750;11.308;2023-04-25T07:49:20;1.87;;;1.17;;
55134;SDS011;41031;44.750;11.308;2023-04-25T07:51:48;3.23;;;0.90;;
55134;SDS011;41031;44.750;11.308;2023-04-25T07:54:17;1.20;;;0.90;;
55134;SDS011;41031;44.750;11.308;2023-04-25T07:56:53;2.47;;;0.80;;
55134;SDS011;41031;44.750;11.308;2023-04-25T07:59:25;0.50;;;0.50;;
55134;SDS011;41031;44.750;11.308;2023-04-25T08:01:57;0.40;;;0.40;;
55134;SDS011;41031;44.750;11.308;2023-04-25T08:04:24;1.03;;;0.70;;
55134;SDS011;41031;44.750;11.308;2023-04-25T08:07:03;1.63;;;0.60;;
55134;SDS011;41031;44.750;11.308;2023-04-25T08:09:38;1.10;;;0.73;;
55134;SDS011;41031;44.750;11.308;2023-04-25T08:12:12;1.57;;;0.70;;
55134;SDS011;41031;44.750;11.308;2023-04-25T08:14:39;2.17;;;0.60;;
55134;SDS011;41031;44.750;11.308;2023-04-25T08:17:06;2.20;;;0.57;;
55134;SDS011;41031;44.750;11.308;2023-04-25T08:19:38;0.90;;;0.63;;
55134;SDS011;41031;44.750;11.308;2023-04-25T08:22:11;0.93;;;0.70;;
55134;SDS011;41031;44.750;11.308;2023-04-25T08:24:53;1.57;;;0.70;;
55134;SDS011;41031;44.750;11.308;2023-04-25T08:27:21;0.73;;;0.73;;
55134;SDS011;41031;44.750;11.308;2023-04-25T08:29:48;0.50;;;0.50;;
55134;SDS011;41031;44.750;11.308;2023-04-25T08:32:15;2.33;;;0.60;;
55134;SDS011;41031;44.750;11.308;2023-04-25T08:34:56;0.43;;;0.43;;
55134;SDS011;41031;44.750;11.308;2023-04-25T08:37:23;1.53;;;0.87;;
55134;SDS011;41031;44.750;11.308;2023-04-25T08:40:00;0.60;;;0.40;;
55134;SDS011;41031;44.750;11.308;2023-04-25T08:43:03;4.33;;;0.40;;
55134;SDS011;41031;44.750;11.308;2023-04-25T08:45:41;3.03;;;0.30;;
55134;SDS011;41031;44.750;11.308;2023-04-25T08:48:15;1.27;;;0.30;;
55134;SDS011;41031;44.750;11.308;2023-04-25T08:50:45;2.87;;;0.63;;
55134;SDS011;41031;44.750;11.308;2023-04-25T08:53:20;0.30;;;0.30;;
55134;SDS011;41031;44.750;11.308;2023-04-25T08:55:55;0.50;;;0.50;;
55134;SDS011;41031;44.750;11.308;2023-04-25T08:58:24;0.40;;;0.40;;
55134;SDS011;41031;44.750;11.308;2023-04-25T09:00:51;1.50;;;0.40;;
55134;SDS011;41031;44.750;11.308;2023-04-25T09:03:21;0.97;;;0.50;;
55134;SDS011;41031;44.750;11.308;2023-04-25T09:05:50;1.37;;;0.67;;
55134;SDS011;41031;44.750;11.308;2023-04-25T09:08:17;0.30;;;0.30;;
55134;SDS011;41031;44.750;11.308;2023-04-25T09:10:44;2.00;;;0.90;;
55134;SDS011;41031;44.750;11.308;2023-04-25T09:13:12;0.53;;;0.40;;
55134;SDS011;41031;44.750;11.308;2023-04-25T09:16:09;1.00;;;0.60;;
55134;SDS011;41031;44.750;11.308;2023-04-25T09:18:53;2.67;;;0.50;;
55134;SDS011;41031;44.750;11.308;2023-04-25T09:21:22;2.20;;;0.70;;
55134;SDS011;41031;44.750;11.308;2023-04-25T09:23:49;1.03;;;0.80;;
55134;SDS011;41031;44.750;11.308;2023-04-25T09:26:19;0.50;;;0.50;;
55134;SDS011;41031;44.750;11.308;2023-04-25T09:28:48;0.47;;;0.40;;
55134;SDS011;41031;44.750;11.308;2023-04-25T09:31:24;1.20;;;0.40;;
55134;SDS011;41031;44.750;11.308;2023-04-25T09:33:58;0.87;;;0.60;;
55134;SDS011;41031;44.750;11.308;2023-04-25T09:36:31;2.03;;;0.47;;
55134;SDS011;41031;44.750;11.308;2023-04-25T09:39:03;0.73;;;0.50;;
55134;SDS011;41031;44.750;11.308;2023-04-25T09:41:46;0.37;;;0.30;;
55134;SDS011;41031;44.750;11.308;2023-04-25T09:44:14;0.57;;;0.40;;
55134;SDS011;41031;44.750;11.308;2023-04-25T09:46:43;0.43;;;0.37;;
55134;SDS011;41031;44.750;11.308;2023-04-25T09:49:20;0.27;;;0.27;;
55134;SDS011;41031;44.750;11.308;2023-04-25T09:52:18;1.60;;;0.20;;
55134;SDS011;41031;44.750;11.308;2023-04-25T09:54:59;0.20;;;0.20;;
55134;SDS011;41031;44.750;11.308;2023-04-25T09:57:32;0.30;;;0.30;;
55134;SDS011;41031;44.750;11.308;2023-04-25T10:00:00;0.23;;;0.23;;
55134;SDS011;41031;44.750;11.308;2023-04-25T10:02:39;0.40;;;0.40;;
55134;SDS011;41031;44.750;11.308;2023-04-25T10:05:15;0.43;;;0.20;;
55134;SDS011;41031;44.750;11.308;2023-04-25T10:07:43;0.20;;;0.20;;
55134;SDS011;41031;44.750;11.308;2023-04-25T10:10:15;1.07;;;0.30;;
55134;SDS011;41031;44.750;11.308;2023-04-25T10:12:42;0.33;;;0.33;;
55134;SDS011;41031;44.750;11.308;2023-04-25T10:15:10;1.50;;;0.40;;
55134;SDS011;41031;44.750;11.308;2023-04-25T10:17:38;0.47;;;0.30;;
55134;SDS011;41031;44.750;11.308;2023-04-25T10:20:06;0.50;;;0.50;;
55134;SDS011;41031;44.750;11.308;2023-04-25T10:22:44;0.37;;;0.37;;
55134;SDS011;41031;44.750;11.308;2023-04-25T10:25:12;2.33;;;0.60;;
55134;SDS011;41031;44.750;11.308;2023-04-25T10:27:40;1.07;;;0.40;;
55134;SDS011;41031;44.750;11.308;2023-04-25T10:30:08;1.53;;;0.60;;
55134;SDS011;41031;44.750;11.308;2023-04-25T10:32:38;0.50;;;0.50;;
55134;SDS011;41031;44.750;11.308;2023-04-25T10:35:14;0.40;;;0.40;;
55134;SDS011;41031;44.750;11.308;2023-04-25T10:38:04;0.50;;;0.40;;
55134;SDS011;41031;44.750;11.308;2023-04-25T10:40:36;1.13;;;1.03;;
55134;SDS011;41031;44.750;11.308;2023-04-25T10:46:01;0.60;;;0.60;;
55134;SDS011;41031;44.750;11.308;2023-04-25T10:48:30;0.30;;;0.30;;
55134;SDS011;41031;44.750;11.308;2023-04-25T10:51:07;0.30;;;0.30;;
55134;SDS011;41031;44.750;11.308;2023-04-25T10:53:35;0.40;;;0.40;;
55134;SDS011;41031;44.750;11.308;2023-04-25T10:56:11;0.63;;;0.50;;
55134;SDS011;41031;44.750;11.308;2023-04-25T10:58:48;0.30;;;0.30;;
55134;SDS011;41031;44.750;11.308;2023-04-25T11:01:21;1.37;;;0.40;;
55134;SDS011;41031;44.750;11.308;2023-04-25T11:03:56;1.50;;;0.60;;
55134;SDS011;41031;44.750;11.308;2023-04-25T11:06:42;0.30;;;0.30;;
55134;SDS011;41031;44.750;11.308;2023-04-25T11:09:34;0.60;;;0.40;;
55134;SDS011;41031;44.750;11.308;2023-04-25T11:12:02;0.33;;;0.33;;
55134;SDS011;41031;44.750;11.308;2023-04-25T11:14:29;0.80;;;0.50;;
55134;SDS011;41031;44.750;11.308;2023-04-25T11:16:57;0.43;;;0.43;;
55134;SDS011;41031;44.750;11.308;2023-04-25T11:19:26;0.53;;;0.53;;
55134;SDS011;41031;44.750;11.308;2023-04-25T11:21:57;0.50;;;0.50;;
55134;SDS011;41031;44.750;11.308;2023-04-25T11:24:29;1.13;;;0.37;;
55134;SDS011;41031;44.750;11.308;2023-04-25T11:27:00;0.50;;;0.50;;
55134;SDS011;41031;44.750;11.308;2023-04-25T11:29:29;0.47;;;0.40;;
55134;SDS011;41031;44.750;11.308;2023-04-25T11:31:58;0.40;;;0.40;;
55134;SDS011;41031;44.750;11.308;2023-04-25T11:34:25;1.13;;;0.50;;
55134;SDS011;41031;44.750;11.308;2023-04-25T11:36:53;1.87;;;0.60;;
55134;SDS011;41031;44.750;11.308;2023-04-25T11:39:20;0.70;;;0.70;;
55134;SDS011;41031;44.750;11.308;2023-04-25T11:41:47;0.60;;;0.60;;
55134;SDS011;41031;44.750;11.308;2023-04-25T11:44:18;0.60;;;0.33;;
55134;SDS011;41031;44.750;11.308;2023-04-25T11:46:46;0.73;;;0.67;;
55134;SDS011;41031;44.750;11.308;2023-04-25T11:49:13;1.27;;;0.53;;
55134;SDS011;41031;44.750;11.308;2023-04-25T11:51:43;0.70;;;0.60;;
55134;SDS011;41031;44.750;11.308;2023-04-25T11:54:13;1.63;;;0.50;;
55134;SDS011;41031;44.750;11.308;2023-04-25T11:56:41;1.23;;;0.50;;
55134;SDS011;41031;44.750;11.308;2023-04-25T11:59:12;0.50;;;0.50;;
55134;SDS011;41031;44.750;11.308;2023-04-25T12:01:47;1.90;;;0.30;;
55134;SDS011;41031;44.750;11.308;2023-04-25T12:04:19;0.57;;;0.43;;
55134;SDS011;41031;44.750;11.308;2023-04-25T12:06:52;0.73;;;0.73;;
55134;SDS011;41031;44.750;11.308;2023-04-25T12:09:21;1.03;;;0.70;;
55134;SDS011;41031;44.750;11.308;2023-04-25T12:11:55;2.57;;;0.60;;
55134;SDS011;41031;44.750;11.308;2023-04-25T12:14:28;0.70;;;0.50;;
55134;SDS011;41031;44.750;11.308;2023-04-25T12:16:58;0.87;;;0.60;;
55134;SDS011;41031;44.750;11.308;2023-04-25T12:19:29;1.33;;;0.53;;
55134;SDS011;41031;44.750;11.308;2023-04-25T12:22:00;0.70;;;0.70;;
55134;SDS011;41031;44.750;11.308;2023-04-25T12:24:29;1.70;;;0.50;;
55134;SDS011;41031;44.750;11.308;2023-04-25T12:27:05;0.77;;;0.70;;
55134;SDS011;41031;44.750;11.308;2023-04-25T12:29:34;1.23;;;0.60;;
55134;SDS011;41031;44.750;11.308;2023-04-25T12:32:14;0.83;;;0.50;;
55134;SDS011;41031;44.750;11.308;2023-04-25T12:34:42;0.60;;;0.60;;
55134;SDS011;41031;44.750;11.308;2023-04-25T12:37:09;1.33;;;0.70;;
55134;SDS011;41031;44.750;11.308;2023-04-25T12:39:37;0.60;;;0.60;;
55134;SDS011;41031;44.750;11.308;2023-04-25T12:42:04;1.93;;;0.70;;
55134;SDS011;41031;44.750;11.308;2023-04-25T12:44:35;0.43;;;0.43;;
55134;SDS011;41031;44.750;11.308;2023-04-25T12:47:02;1.03;;;0.50;;
55134;SDS011;41031;44.750;11.308;2023-04-25T12:49:30;0.80;;;0.63;;
55134;SDS011;41031;44.750;11.308;2023-04-25T12:51:58;2.17;;;0.40;;
55134;SDS011;41031;44.750;11.308;2023-04-25T12:54:25;0.70;;;0.53;;
55134;SDS011;41031;44.750;11.308;2023-04-25T12:56:52;1.40;;;0.50;;
55134;SDS011;41031;44.750;11.308;2023-04-25T12:59:19;1.13;;;0.70;;
55134;SDS011;41031;44.750;11.308;2023-04-25T13:01:47;1.67;;;0.50;;
55134;SDS011;41031;44.750;11.308;2023-04-25T13:04:14;0.90;;;0.57;;
55134;SDS011;41031;44.750;11.308;2023-04-25T13:06:42;4.10;;;0.60;;
55134;SDS011;41031;44.750;11.308;2023-04-25T13:09:09;0.73;;;0.50;;
55134;SDS011;41031;44.750;11.308;2023-04-25T13:11:39;1.97;;;0.60;;
55134;SDS011;41031;44.750;11.308;2023-04-25T13:14:07;7.10;;;0.60;;
55134;SDS011;41031;44.750;11.308;2023-04-25T13:16:34;1.40;;;0.53;;
55134;SDS011;41031;44.750;11.308;2023-04-25T13:19:01;1.23;;;0.60;;
55134;SDS011;41031;44.750;11.308;2023-04-25T13:21:29;1.63;;;0.67;;
55134;SDS011;41031;44.750;11.308;2023-04-25T13:23:58;0.93;;;0.67;;
55134;SDS011;41031;44.750;11.308;2023-04-25T13:26:26;3.30;;;0.70;;
55134;SDS011;41031;44.750;11.308;2023-04-25T13:28:53;1.13;;;0.33;;
55134;SDS011;41031;44.750;11.308;2023-04-25T13:31:20;0.30;;;0.30;;
55134;SDS011;41031;44.750;11.308;2023-04-25T13:33:47;3.43;;;0.43;;
55134;SDS011;41031;44.750;11.308;2023-04-25T13:36:14;2.33;;;0.50;;
55134;SDS011;41031;44.750;11.308;2023-04-25T13:38:41;0.90;;;0.37;;
55134;SDS011;41031;44.750;11.308;2023-04-25T13:41:10;1.10;;;0.50;;
55134;SDS011;41031;44.750;11.308;2023-04-25T13:43:42;0.30;;;0.30;;
55134;SDS011;41031;44.750;11.308;2023-04-25T13:46:08;2.50;;;0.57;;
55134;SDS011;41031;44.750;11.308;2023-04-25T13:48:55;2.13;;;0.37;;
55134;SDS011;41031;44.750;11.308;2023-04-25T13:51:35;3.00;;;0.63;;
55134;SDS011;41031;44.750;11.308;2023-04-25T13:54:02;2.33;;;0.57;;
55134;SDS011;41031;44.750;11.308;2023-04-25T13:56:29;2.03;;;0.60;;
55134;SDS011;41031;44.750;11.308;2023-04-25T13:58:56;4.67;;;0.93;;
55134;SDS011;41031;44.750;11.308;2023-04-25T14:01:23;2.13;;;0.70;;
55134;SDS011;41031;44.750;11.308;2023-04-25T14:03:50;3.57;;;0.80;;
55134;SDS011;41031;44.750;11.308;2023-04-25T14:06:17;2.00;;;0.60;;
55134;SDS011;41031;44.750;11.308;2023-04-25T14:08:49;4.80;;;0.50;;
55134;SDS011;41031;44.750;11.308;2023-04-25T14:11:16;3.80;;;0.80;;
55134;SDS011;41031;44.750;11.308;2023-04-25T14:13:45;3.43;;;0.50;;
55134;SDS011;41031;44.750;11.308;2023-04-25T14:16:12;2.73;;;0.67;;
55134;SDS011;41031;44.750;11.308;2023-04-25T14:18:39;2.43;;;0.50;;
55134;SDS011;41031;44.750;11.308;2023-04-25T14:21:06;2.50;;;0.30;;
55134;SDS011;41031;44.750;11.308;2023-04-25T14:23:34;5.47;;;0.50;;
55134;SDS011;41031;44.750;11.308;2023-04-25T14:26:01;1.80;;;0.50;;
55134;SDS011;41031;44.750;11.308;2023-04-25T14:28:28;1.30;;;0.37;;
55134;SDS011;41031;44.750;11.308;2023-04-25T14:30:55;1.73;;;0.50;;
55134;SDS011;41031;44.750;11.308;2023-04-25T14:33:22;2.40;;;0.40;;
55134;SDS011;41031;44.750;11.308;2023-04-25T14:35:49;1.97;;;0.80;;
55134;SDS011;41031;44.750;11.308;2023-04-25T14:38:16;0.77;;;0.30;;
55134;SDS011;41031;44.750;11.308;2023-04-25T14:40:44;1.07;;;0.70;;
55134;SDS011;41031;44.750;11.308;2023-04-25T14:43:11;0.80;;;0.40;;
55134;SDS011;41031;44.750;11.308;2023-04-25T14:45:38;2.67;;;0.93;;
55134;SDS011;41031;44.750;11.308;2023-04-25T14:48:05;1.23;;;0.40;;
55134;SDS011;41031;44.750;11.308;2023-04-25T14:50:33;0.80;;;0.50;;
55134;SDS011;41031;44.750;11.308;2023-04-25T14:53:00;1.07;;;0.50;;
55134;SDS011;41031;44.750;11.308;2023-04-25T14:55:28;0.60;;;0.50;;
55134;SDS011;41031;44.750;11.308;2023-04-25T14:57:55;0.63;;;0.40;;
55134;SDS011;41031;44.750;11.308;2023-04-25T15:00:23;1.67;;;0.47;;